createdAt,value
2023-01-10T00:01:18.664Z,2.73
2023-01-10T00:03:45.271Z,2.70
2023-01-10T00:06:11.911Z,2.81
2023-01-10T00:08:38.657Z,2.82
2023-01-10T00:11:25.383Z,2.85
2023-01-10T00:13:56.357Z,2.87
2023-01-10T00:16:24.047Z,2.90
2023-01-10T00:18:50.752Z,2.85
2023-01-10T00:21:17.551Z,2.81
2023-01-10T00:23:44.585Z,2.79
2023-01-10T00:26:11.806Z,2.79
2023-01-10T00:28:39.442Z,2.75
2023-01-10T00:31:07.116Z,2.80
2023-01-10T00:33:34.752Z,2.78
2023-01-10T00:36:03.333Z,2.80
2023-01-10T00:38:31.116Z,2.78
2023-01-10T00:40:57.904Z,2.81
2023-01-10T00:43:43.185Z,2.81
2023-01-10T00:46:10.336Z,2.76
2023-01-10T00:48:37.604Z,2.68
2023-01-10T00:51:05.321Z,2.71
2023-01-10T00:53:31.980Z,2.67
2023-01-10T00:55:58.711Z,2.67
2023-01-10T00:58:25.483Z,2.61
2023-01-10T01:00:52.252Z,2.66
2023-01-10T01:03:21.862Z,2.64
2023-01-10T01:05:49.146Z,2.56
2023-01-10T01:08:17.407Z,2.55
2023-01-10T01:10:44.536Z,2.50
2023-01-10T01:13:16.233Z,2.50
2023-01-10T01:15:43.072Z,2.44
2023-01-10T01:18:13.311Z,2.42
2023-01-10T01:20:41.180Z,2.40
2023-01-10T01:23:08.513Z,2.36
2023-01-10T01:25:35.464Z,2.36
2023-01-10T01:28:02.377Z,2.37
2023-01-10T01:30:29.063Z,2.42
2023-01-10T01:32:55.701Z,2.42
2023-01-10T01:35:22.512Z,2.41
2023-01-10T01:37:49.171Z,2.36
2023-01-10T01:40:23.162Z,2.41
2023-01-10T01:42:55.616Z,2.37
2023-01-10T01:45:38.984Z,2.40
2023-01-10T01:48:17.730Z,2.45
2023-01-10T01:50:52.190Z,2.47
2023-01-10T01:53:24.401Z,2.45
2023-01-10T01:55:53.669Z,2.46
2023-01-10T01:58:26.162Z,2.41
2023-01-10T02:00:52.883Z,2.43
2023-01-10T02:03:19.775Z,2.39
2023-01-10T02:05:46.835Z,2.34
2023-01-10T02:08:13.986Z,2.31
2023-01-10T02:11:01.162Z,2.29
2023-01-10T02:13:28.417Z,2.24
2023-01-10T02:15:55.109Z,2.22
2023-01-10T02:18:23.428Z,2.22
2023-01-10T02:21:21.199Z,2.25
2023-01-10T02:24:06.095Z,2.25
2023-01-10T02:26:50.818Z,2.24
2023-01-10T02:30:00.980Z,2.24
2023-01-10T02:32:57.025Z,2.34
2023-01-10T02:35:46.114Z,2.33
2023-01-10T02:38:24.903Z,2.32
2023-01-10T02:41:15.621Z,2.32
2023-01-10T02:43:53.914Z,2.31
2023-01-10T02:46:25.535Z,2.31
2023-01-10T02:48:54.110Z,2.27
2023-01-10T02:51:23.529Z,2.28
2023-01-10T02:53:58.874Z,2.25
2023-01-10T02:56:53.293Z,2.24
2023-01-10T02:59:53.567Z,2.20
2023-01-10T03:02:37.782Z,2.15
2023-01-10T03:05:19.291Z,2.12
2023-01-10T03:08:01.752Z,2.13
2023-01-10T03:11:00.967Z,2.13
2023-01-10T03:13:37.393Z,2.15
2023-01-10T03:16:07.861Z,2.11
2023-01-10T03:18:45.044Z,2.14
2023-01-10T03:21:13.195Z,2.17
2023-01-10T03:23:41.569Z,2.17
2023-01-10T03:26:11.432Z,2.13
2023-01-10T03:28:52.275Z,2.04
2023-01-10T03:31:28.198Z,2.10
2023-01-10T03:33:55.469Z,2.11
2023-01-10T03:36:54.629Z,2.03
2023-01-10T03:39:30.766Z,2.02
2023-01-10T03:42:29.906Z,2.03
2023-01-10T03:45:10.132Z,1.94
2023-01-10T03:47:45.472Z,1.92
2023-01-10T03:50:18.062Z,1.87
2023-01-10T03:52:45.315Z,1.85
2023-01-10T03:55:16.629Z,1.85
2023-01-10T03:57:48.973Z,1.79
2023-01-10T04:00:16.533Z,1.71
2023-01-10T04:02:44.370Z,1.76
2023-01-10T04:05:11.563Z,1.71
2023-01-10T04:07:38.414Z,1.63
2023-01-10T04:10:06.009Z,1.62
2023-01-10T04:12:32.792Z,1.63
2023-01-10T04:14:59.532Z,1.63
2023-01-10T04:17:26.168Z,1.58
2023-01-10T04:19:52.807Z,1.54
2023-01-10T04:22:19.446Z,1.54
2023-01-10T04:24:47.266Z,1.53
2023-01-10T04:27:14.038Z,1.61
2023-01-10T04:29:40.662Z,1.50
2023-01-10T04:32:07.347Z,1.60
2023-01-10T04:34:34.159Z,1.63
2023-01-10T04:37:00.817Z,1.71
2023-01-10T04:39:27.461Z,1.72
2023-01-10T04:41:54.172Z,1.71
2023-01-10T04:44:20.790Z,1.71
2023-01-10T04:46:47.458Z,1.74
2023-01-10T04:49:14.084Z,1.80
2023-01-10T04:51:40.842Z,1.73
2023-01-10T04:54:07.515Z,1.81
2023-01-10T04:56:34.209Z,1.85
2023-01-10T04:59:00.892Z,1.80
2023-01-10T05:01:27.809Z,1.80
2023-01-10T05:03:55.940Z,1.84
2023-01-10T05:06:24.214Z,1.80
2023-01-10T05:08:51.333Z,1.78
2023-01-10T05:11:18.048Z,1.78
2023-01-10T05:13:47.095Z,1.76
2023-01-10T05:16:14.567Z,1.81
2023-01-10T05:18:41.218Z,1.79
2023-01-10T05:21:11.033Z,1.86
2023-01-10T05:23:38.810Z,1.90
2023-01-10T05:26:09.969Z,1.92
2023-01-10T05:28:37.287Z,1.87
2023-01-10T05:31:06.652Z,1.88
2023-01-10T05:33:33.411Z,1.83
2023-01-10T05:36:05.486Z,1.89
2023-01-10T05:38:33.082Z,1.93
2023-01-10T05:41:00.644Z,1.87
2023-01-10T05:43:27.717Z,1.92
2023-01-10T05:45:54.513Z,1.96
2023-01-10T05:48:21.282Z,1.87
2023-01-10T05:50:50.350Z,1.94
2023-01-10T05:53:17.365Z,1.88
2023-01-10T05:55:44.250Z,1.94
2023-01-10T05:58:11.549Z,1.93
2023-01-10T06:00:39.960Z,1.96
2023-01-10T06:03:06.774Z,1.99
2023-01-10T06:05:33.506Z,2.00
2023-01-10T06:08:00.106Z,1.99
2023-01-10T06:10:27.278Z,1.91
2023-01-10T06:12:55.211Z,1.98
2023-01-10T06:15:21.886Z,2.01
2023-01-10T06:17:48.639Z,2.02
2023-01-10T06:20:15.323Z,1.94
2023-01-10T06:22:43.480Z,1.99
2023-01-10T06:25:11.720Z,1.99
2023-01-10T06:27:41.092Z,1.98
2023-01-10T06:30:09.542Z,2.01
2023-01-10T06:32:36.704Z,2.08
2023-01-10T06:35:03.793Z,2.03
2023-01-10T06:37:30.820Z,2.06
2023-01-10T06:39:57.499Z,2.00
2023-01-10T06:42:24.617Z,1.98
2023-01-10T06:44:51.292Z,2.01
2023-01-10T06:47:18.023Z,1.93
2023-01-10T06:49:44.666Z,1.99
2023-01-10T06:52:11.375Z,1.97
2023-01-10T06:54:38.240Z,1.97
2023-01-10T06:57:05.052Z,1.94
2023-01-10T06:59:31.692Z,1.94
2023-01-10T07:01:58.438Z,1.95
2023-01-10T07:04:26.868Z,1.94
2023-01-10T07:06:54.165Z,1.90
2023-01-10T07:09:20.944Z,1.94
2023-01-10T07:11:47.619Z,1.96
2023-01-10T07:14:14.230Z,1.97
2023-01-10T07:16:40.977Z,1.94
2023-01-10T07:19:07.667Z,1.91
2023-01-10T07:21:34.314Z,1.93
2023-01-10T07:24:02.749Z,1.96
2023-01-10T07:26:29.990Z,1.95
2023-01-10T07:28:57.085Z,1.95
2023-01-10T07:31:24.576Z,2.03
2023-01-10T07:33:52.360Z,2.08
2023-01-10T07:36:19.220Z,1.99
2023-01-10T07:38:45.957Z,1.95
2023-01-10T07:41:12.852Z,2.14
2023-01-10T07:43:39.497Z,2.10
2023-01-10T07:46:12.294Z,2.06
2023-01-10T07:48:41.897Z,2.16
2023-01-10T07:51:09.644Z,2.13
2023-01-10T07:53:36.418Z,2.21
2023-01-10T07:56:04.663Z,2.24
2023-01-10T07:58:33.076Z,2.30
2023-01-10T08:01:01.151Z,2.33
2023-01-10T08:03:29.854Z,2.88
2023-01-10T08:06:01.267Z,2.82
2023-01-10T08:08:28.634Z,2.61
2023-01-10T08:10:55.434Z,2.58
2023-01-10T08:13:22.911Z,2.56
2023-01-10T08:15:52.718Z,2.46
2023-01-10T08:18:20.864Z,2.49
2023-01-10T08:20:49.894Z,2.36
2023-01-10T08:23:17.612Z,2.39
2023-01-10T08:25:44.553Z,2.28
2023-01-10T08:28:11.927Z,2.37
2023-01-10T08:30:39.391Z,2.38
2023-01-10T08:33:07.488Z,2.44
2023-01-10T08:35:42.399Z,2.35
2023-01-10T08:38:10.801Z,2.40
2023-01-10T08:40:38.018Z,2.40
2023-01-10T08:43:06.983Z,2.56
2023-01-10T08:45:34.665Z,2.53
2023-01-10T08:48:02.050Z,2.58
2023-01-10T08:50:28.848Z,2.55
2023-01-10T08:52:59.341Z,2.55
2023-01-10T08:55:26.945Z,2.57
2023-01-10T08:57:53.938Z,2.52
2023-01-10T09:00:21.127Z,2.53
2023-01-10T09:02:47.899Z,2.71
2023-01-10T09:05:26.421Z,2.67
2023-01-10T09:07:57.860Z,2.65
2023-01-10T09:10:24.570Z,2.65
2023-01-10T09:12:57.281Z,2.72
2023-01-10T09:15:30.465Z,2.75
2023-01-10T09:17:58.817Z,2.74
2023-01-10T09:20:26.619Z,2.74
2023-01-10T09:22:53.733Z,2.70
2023-01-10T09:25:21.163Z,2.80
2023-01-10T09:27:47.877Z,2.75
2023-01-10T09:30:14.960Z,2.77
2023-01-10T09:32:41.680Z,2.80
2023-01-10T09:35:08.784Z,2.76
2023-01-10T09:37:35.697Z,2.81
2023-01-10T09:40:02.475Z,2.88
2023-01-10T09:42:51.034Z,2.91
2023-01-10T09:46:01.920Z,2.95
2023-01-10T09:48:48.779Z,2.97
2023-01-10T09:51:39.074Z,2.96
2023-01-10T09:54:14.132Z,2.98
2023-01-10T09:56:41.378Z,2.95
2023-01-10T09:59:20.331Z,2.93
2023-01-10T10:01:48.866Z,2.90
2023-01-10T10:04:36.923Z,2.94
2023-01-10T10:07:11.380Z,2.95
2023-01-10T10:09:38.212Z,2.99
2023-01-10T10:12:23.413Z,3.02
2023-01-10T10:15:00.341Z,3.05
2023-01-10T10:17:33.108Z,3.13
2023-01-10T10:20:14.978Z,3.11
2023-01-10T10:22:54.060Z,3.00
2023-01-10T10:25:33.040Z,3.06
2023-01-10T10:28:11.773Z,3.15
2023-01-10T10:30:50.577Z,3.19
2023-01-10T10:33:30.437Z,3.17
2023-01-10T10:36:12.927Z,3.17
2023-01-10T10:38:43.866Z,3.13
2023-01-10T10:41:26.229Z,3.09
2023-01-10T10:43:54.530Z,3.12
2023-01-10T10:46:22.257Z,3.08
2023-01-10T10:48:57.125Z,3.24
2023-01-10T10:51:37.751Z,3.29
2023-01-10T10:54:06.422Z,3.23
2023-01-10T10:56:33.469Z,3.24
2023-01-10T10:59:00.703Z,3.22
2023-01-10T11:01:27.706Z,3.17
2023-01-10T11:04:02.238Z,3.15
2023-01-10T11:06:33.885Z,3.11
2023-01-10T11:09:04.756Z,3.02
2023-01-10T11:11:41.162Z,2.99
2023-01-10T11:14:08.894Z,3.01
2023-01-10T11:16:39.713Z,3.05
2023-01-10T11:19:10.980Z,3.23
2023-01-10T11:21:40.957Z,3.33
2023-01-10T11:24:30.779Z,3.45
2023-01-10T11:27:00.040Z,3.44
2023-01-10T11:29:28.237Z,3.54
2023-01-10T11:31:57.081Z,3.45
2023-01-10T11:34:35.690Z,3.43
2023-01-10T11:37:17.513Z,3.38
2023-01-10T11:39:44.465Z,3.41
2023-01-10T11:42:29.959Z,3.48
2023-01-10T11:45:23.155Z,3.56
2023-01-10T11:47:51.837Z,3.52
2023-01-10T11:50:28.335Z,3.47
2023-01-10T11:52:56.538Z,3.51
2023-01-10T11:55:30.371Z,3.61
2023-01-10T11:58:05.670Z,3.74
2023-01-10T12:00:43.664Z,3.61
2023-01-10T12:03:18.175Z,3.77
2023-01-10T12:06:17.599Z,3.82
2023-01-10T12:08:45.101Z,3.99
2023-01-10T12:11:32.650Z,4.05
2023-01-10T12:14:01.259Z,4.00
2023-01-10T12:16:33.507Z,3.99
2023-01-10T12:19:03.782Z,4.03
2023-01-10T12:21:45.345Z,3.91
2023-01-10T12:24:22.432Z,3.98
2023-01-10T12:26:51.062Z,4.03
2023-01-10T12:29:29.010Z,4.07
2023-01-10T12:31:58.828Z,4.05
2023-01-10T12:34:49.901Z,3.91
2023-01-10T12:37:45.667Z,3.99
2023-01-10T12:40:29.386Z,4.09
2023-01-10T12:43:21.709Z,4.08
2023-01-10T12:45:56.044Z,4.14
2023-01-10T12:49:01.982Z,4.25
2023-01-10T12:51:29.881Z,4.20
2023-01-10T12:54:05.022Z,4.17
2023-01-10T12:56:32.423Z,4.02
2023-01-10T12:59:07.117Z,3.97
2023-01-10T13:01:43.104Z,3.99
2023-01-10T13:04:17.534Z,4.01
2023-01-10T13:06:45.192Z,4.01
2023-01-10T13:09:21.216Z,4.07
2023-01-10T13:11:59.528Z,4.02
2023-01-10T13:14:32.133Z,4.11
2023-01-10T13:17:23.877Z,4.21
2023-01-10T13:20:25.447Z,4.16
2023-01-10T13:22:55.729Z,4.20
2023-01-10T13:25:30.056Z,4.23
2023-01-10T13:28:10.253Z,4.17
2023-01-10T13:30:40.903Z,4.09
2023-01-10T13:33:21.165Z,4.13
2023-01-10T13:35:49.218Z,4.13
2023-01-10T13:38:19.931Z,4.03
2023-01-10T13:40:58.858Z,4.08
2023-01-10T13:43:37.292Z,4.09
2023-01-10T13:46:16.333Z,4.09
2023-01-10T13:48:57.047Z,3.96
2023-01-10T13:51:23.683Z,3.89
2023-01-10T13:54:13.137Z,3.90
2023-01-10T13:56:42.077Z,3.77
2023-01-10T13:59:49.955Z,3.71
2023-01-10T14:02:30.100Z,3.71
2023-01-10T14:04:58.935Z,3.69
2023-01-10T14:07:31.724Z,3.62
2023-01-10T14:10:04.753Z,3.59
2023-01-10T14:12:39.696Z,3.62
2023-01-10T14:15:21.753Z,3.65
2023-01-10T14:17:58.022Z,3.59
2023-01-10T14:20:25.178Z,3.55
2023-01-10T14:23:08.434Z,3.68
2023-01-10T14:25:37.902Z,3.69
2023-01-10T14:28:15.187Z,3.60
2023-01-10T14:30:41.967Z,3.62
2023-01-10T14:33:20.418Z,3.65
2023-01-10T14:35:51.537Z,3.62
2023-01-10T14:38:30.571Z,3.63
2023-01-10T14:41:02.423Z,3.61
2023-01-10T14:43:39.049Z,3.58
2023-01-10T14:46:16.123Z,3.55
2023-01-10T14:48:51.237Z,3.44
2023-01-10T14:51:26.251Z,3.49
2023-01-10T14:54:02.782Z,3.51
2023-01-10T14:56:43.247Z,3.53
2023-01-10T14:59:24.003Z,3.49
2023-01-10T15:01:53.484Z,3.42
2023-01-10T15:04:23.137Z,3.37
2023-01-10T15:07:03.070Z,3.46
2023-01-10T15:09:32.085Z,3.35
2023-01-10T15:12:02.309Z,3.33
2023-01-10T15:14:30.245Z,3.38
2023-01-10T15:17:02.215Z,3.31
2023-01-10T15:19:38.718Z,3.35
2023-01-10T15:22:33.455Z,3.40
2023-01-10T15:25:25.607Z,3.29
2023-01-10T15:27:53.180Z,3.29
2023-01-10T15:30:26.194Z,3.32
2023-01-10T15:32:56.414Z,3.25
2023-01-10T15:35:35.319Z,3.27
2023-01-10T15:38:14.533Z,3.22
2023-01-10T15:40:42.810Z,3.16
2023-01-10T15:43:24.445Z,3.11
2023-01-10T15:45:53.180Z,3.08
2023-01-10T15:48:30.009Z,3.03
2023-01-10T15:51:03.666Z,2.98
2023-01-10T15:54:03.736Z,2.97
2023-01-10T15:56:40.329Z,2.94
2023-01-10T15:59:23.996Z,2.94
2023-01-10T16:02:04.872Z,2.91
2023-01-10T16:04:36.184Z,2.88
2023-01-10T16:07:13.297Z,2.79
2023-01-10T16:09:41.079Z,2.80
2023-01-10T16:12:43.523Z,2.84
2023-01-10T16:15:22.979Z,2.78
2023-01-10T16:17:50.644Z,2.75
2023-01-10T16:20:19.435Z,2.74
2023-01-10T16:22:48.039Z,2.76
2023-01-10T16:25:20.478Z,2.61
2023-01-10T16:27:47.490Z,2.64
2023-01-10T16:30:24.478Z,2.61
2023-01-10T16:32:51.787Z,2.52
2023-01-10T16:35:19.698Z,2.56
2023-01-10T16:37:47.683Z,2.50
2023-01-10T16:40:21.551Z,2.52
2023-01-10T16:43:06.916Z,2.44
2023-01-10T16:45:33.879Z,2.48
2023-01-10T16:48:01.337Z,2.41
2023-01-10T16:50:28.196Z,2.42
2023-01-10T16:52:55.001Z,2.38
2023-01-10T16:55:24.970Z,2.38
2023-01-10T16:57:52.049Z,2.32
2023-01-10T17:00:20.333Z,2.39
2023-01-10T17:02:47.123Z,2.37
2023-01-10T17:05:16.369Z,2.34
2023-01-10T17:07:43.260Z,2.35
2023-01-10T17:10:10.418Z,2.25
2023-01-10T17:12:39.571Z,2.28
2023-01-10T17:15:08.444Z,2.15
2023-01-10T17:17:35.341Z,2.20
2023-01-10T17:20:02.877Z,2.15
2023-01-10T17:22:30.542Z,2.13
2023-01-10T17:24:57.285Z,2.09
2023-01-10T17:27:23.977Z,2.02
2023-01-10T17:29:50.612Z,2.08
2023-01-10T17:32:17.261Z,2.04
2023-01-10T17:34:43.941Z,2.03
2023-01-10T17:37:10.639Z,2.02
2023-01-10T17:39:37.968Z,1.99
2023-01-10T17:42:06.170Z,1.96
2023-01-10T17:44:32.932Z,1.93
2023-01-10T17:46:59.676Z,1.91
2023-01-10T17:49:26.361Z,1.87
2023-01-10T17:51:54.761Z,1.84
2023-01-10T17:54:21.780Z,1.88
2023-01-10T17:56:48.528Z,1.91
2023-01-10T17:59:15.212Z,1.88
2023-01-10T18:01:42.441Z,1.84
2023-01-10T18:04:09.193Z,1.83
2023-01-10T18:06:35.869Z,1.81
2023-01-10T18:09:03.144Z,1.77
2023-01-10T18:11:31.775Z,1.77
2023-01-10T18:13:58.493Z,1.74
2023-01-10T18:16:27.161Z,1.70
2023-01-10T18:18:54.082Z,1.72
2023-01-10T18:21:20.753Z,1.71
2023-01-10T18:23:49.056Z,1.75
2023-01-10T18:26:15.909Z,1.70
2023-01-10T18:28:44.358Z,1.78
2023-01-10T18:31:16.997Z,1.76
2023-01-10T18:33:45.156Z,1.75
2023-01-10T18:36:22.550Z,1.74
2023-01-10T18:38:49.307Z,1.70
2023-01-10T18:41:16.913Z,1.65
2023-01-10T18:43:43.767Z,1.72
2023-01-10T18:46:13.334Z,1.71
2023-01-10T18:48:40.361Z,1.70
2023-01-10T18:51:10.036Z,1.66
2023-01-10T18:53:36.739Z,1.68
2023-01-10T18:56:05.266Z,1.66
2023-01-10T18:58:34.913Z,1.75
2023-01-10T19:01:06.817Z,1.73
2023-01-10T19:03:33.814Z,1.73
2023-01-10T19:06:02.072Z,1.73
2023-01-10T19:08:28.856Z,1.68
2023-01-10T19:11:12.279Z,1.73
2023-01-10T19:13:40.435Z,1.73
2023-01-10T19:16:13.035Z,1.70
2023-01-10T19:18:39.795Z,1.62
2023-01-10T19:21:08.800Z,1.54
2023-01-10T19:23:35.489Z,1.62
2023-01-10T19:26:02.104Z,1.65
2023-01-10T19:28:32.270Z,1.73
2023-01-10T19:31:04.651Z,1.75
2023-01-10T19:33:34.574Z,1.78
2023-01-10T19:36:08.259Z,1.78
2023-01-10T19:38:35.370Z,1.78
2023-01-10T19:41:02.379Z,1.80
2023-01-10T19:43:29.528Z,1.86
2023-01-10T19:45:56.303Z,1.79
2023-01-10T19:48:23.536Z,1.86
2023-01-10T19:50:50.162Z,1.80
2023-01-10T19:53:23.704Z,1.86
2023-01-10T19:56:00.830Z,1.89
2023-01-10T19:58:27.505Z,1.88
2023-01-10T20:00:54.165Z,1.86
2023-01-10T20:03:20.788Z,1.91
2023-01-10T20:05:47.582Z,1.91
2023-01-10T20:08:14.254Z,1.87
2023-01-10T20:10:41.054Z,1.96
2023-01-10T20:13:10.176Z,1.95
2023-01-10T20:15:37.140Z,1.96
2023-01-10T20:18:03.949Z,1.99
2023-01-10T20:20:31.173Z,1.97
2023-01-10T20:22:57.823Z,2.00
2023-01-10T20:25:24.575Z,2.02
2023-01-10T20:27:51.309Z,2.00
2023-01-10T20:30:18.811Z,2.01
2023-01-10T20:32:45.524Z,2.02
2023-01-10T20:35:13.936Z,2.10
2023-01-10T20:37:40.684Z,2.18
2023-01-10T20:40:09.750Z,2.20
2023-01-10T20:42:36.393Z,2.21
2023-01-10T20:45:03.135Z,2.22
2023-01-10T20:47:29.908Z,2.16
2023-01-10T20:49:56.785Z,2.28
2023-01-10T20:52:23.546Z,2.30
2023-01-10T20:54:50.287Z,2.30
2023-01-10T20:57:16.999Z,2.36
2023-01-10T20:59:43.963Z,2.31
2023-01-10T21:02:11.461Z,2.32
2023-01-10T21:04:38.156Z,2.37
2023-01-10T21:07:06.754Z,2.26
2023-01-10T21:09:33.525Z,2.32
2023-01-10T21:12:13.790Z,2.26
2023-01-10T21:14:47.836Z,2.29
2023-01-10T21:17:14.473Z,2.31
2023-01-10T21:19:41.168Z,2.29
2023-01-10T21:22:07.827Z,2.28
2023-01-10T21:24:34.624Z,2.27
2023-01-10T21:27:01.358Z,2.23
2023-01-10T21:29:28.094Z,2.24
2023-01-10T21:31:54.772Z,2.22
2023-01-10T21:34:21.784Z,2.20
2023-01-10T21:36:48.478Z,2.17
2023-01-10T21:39:15.251Z,2.16
2023-01-10T21:42:00.494Z,2.16
2023-01-10T21:44:27.181Z,2.16
2023-01-10T21:46:54.226Z,2.21
2023-01-10T21:49:21.852Z,2.16
2023-01-10T21:51:48.529Z,2.15
2023-01-10T21:54:15.502Z,2.12
2023-01-10T21:56:42.140Z,2.06
2023-01-10T21:59:09.020Z,2.11
2023-01-10T22:01:35.640Z,2.12
2023-01-10T22:04:02.709Z,1.97
2023-01-10T22:06:29.667Z,2.08
2023-01-10T22:08:56.325Z,2.08
2023-01-10T22:11:22.997Z,2.05
2023-01-10T22:13:51.542Z,2.02
2023-01-10T22:16:18.626Z,2.05
2023-01-10T22:18:45.696Z,1.97
2023-01-10T22:21:12.588Z,1.91
2023-01-10T22:23:43.119Z,1.98
2023-01-10T22:26:12.713Z,1.97
2023-01-10T22:28:39.803Z,1.91
2023-01-10T22:31:06.646Z,1.88
2023-01-10T22:33:36.568Z,1.91
2023-01-10T22:36:07.214Z,1.92
2023-01-10T22:38:34.302Z,1.88
2023-01-10T22:41:07.817Z,1.89
2023-01-10T22:43:34.716Z,1.89
2023-01-10T22:46:01.495Z,1.77
2023-01-10T22:48:28.419Z,1.80
2023-01-10T22:50:55.139Z,1.77
2023-01-10T22:53:22.231Z,1.77
2023-01-10T22:55:49.036Z,1.72
2023-01-10T22:58:15.848Z,1.75
2023-01-10T23:00:42.717Z,1.76
2023-01-10T23:03:09.361Z,1.73
2023-01-10T23:05:36.138Z,1.63
2023-01-10T23:08:02.879Z,1.73
2023-01-10T23:10:31.030Z,1.76
2023-01-10T23:12:58.019Z,1.75
2023-01-10T23:15:24.894Z,1.78
2023-01-10T23:17:51.653Z,1.77
2023-01-10T23:20:18.734Z,1.76
2023-01-10T23:22:45.378Z,1.79
2023-01-10T23:25:12.369Z,1.84
2023-01-10T23:27:39.884Z,1.81
2023-01-10T23:30:08.769Z,1.94
2023-01-10T23:32:36.043Z,1.98
2023-01-10T23:35:02.806Z,1.97
2023-01-10T23:37:29.723Z,1.97
2023-01-10T23:39:56.447Z,1.98
2023-01-10T23:42:23.380Z,1.96
2023-01-10T23:44:50.239Z,2.00
2023-01-10T23:47:16.865Z,1.97
2023-01-10T23:49:43.534Z,1.98
2023-01-10T23:52:10.264Z,1.99
2023-01-10T23:54:37.053Z,2.02
2023-01-10T23:57:03.882Z,2.04
2023-01-10T23:59:30.862Z,2.05
